Time;durP1;ratioP1;P1;durP2;ratioP2;P2;SDS_P1;SDS_P2;PMS_P1;PMS_P2;Temp;Humidity;BMP_temperature;BMP_pressure;BME280_temperature;BME280_humidity;BME280_pressure;Samples;Min_cycle;Max_cycle;Signal;HPM_P1;HPM_P2
2022/04/30 00:00:30;;;;;;;25.73;23.80;;;;;;;;;;5057376;28;20447;-90
2022/04/30 00:02:59;;;;;;;25.13;23.33;;;;;;;;;;5057575;28;20446;-90
2022/04/30 00:05:28;;;;;;;24.35;22.67;;;;;;;;;;5073159;28;20484;-90
2022/04/30 00:07:57;;;;;;;24.83;23.00;;;;;;;;;;5057679;28;20197;-90
2022/04/30 00:10:25;;;;;;;25.67;23.97;;;;;;;;;;5057452;28;20449;-90
2022/04/30 00:12:52;;;;;;;25.30;23.70;;;;;;;;;;5072437;28;20445;-90
2022/04/30 00:15:20;;;;;;;26.43;24.77;;;;;;;;;;5056419;28;20184;-89
2022/04/30 00:17:49;;;;;;;26.17;23.93;;;;;;;;;;5056918;28;20921;-90
2022/04/30 00:20:17;;;;;;;25.33;23.33;;;;;;;;;;5056817;28;20440;-89
2022/04/30 00:22:45;;;;;;;25.10;23.27;;;;;;;;;;5056955;28;20455;-90
2022/04/30 00:25:14;;;;;;;24.97;23.30;;;;;;;;;;5057033;28;20630;-89
2022/04/30 00:27:42;;;;;;;26.07;24.20;;;;;;;;;;5056698;28;20947;-89
2022/04/30 00:30:10;;;;;;;25.73;23.90;;;;;;;;;;5057061;28;20501;-90
2022/04/30 00:32:37;;;;;;;25.23;23.45;;;;;;;;;;5056644;28;20450;-90
2022/04/30 00:35:05;;;;;;;25.20;23.40;;;;;;;;;;5056906;28;20185;-90
2022/04/30 00:37:32;;;;;;;25.17;23.10;;;;;;;;;;5057090;28;20435;-89
2022/04/30 00:40:00;;;;;;;26.17;24.30;;;;;;;;;;5056600;28;20429;-90
2022/04/30 00:42:29;;;;;;;24.03;22.33;;;;;;;;;;5056945;28;20811;-89
2022/04/30 00:44:56;;;;;;;25.67;23.60;;;;;;;;;;5056506;28;20860;-90
2022/04/30 00:47:24;;;;;;;24.53;22.83;;;;;;;;;;5072096;28;20212;-90
2022/04/30 00:49:52;;;;;;;26.43;24.33;;;;;;;;;;5056285;28;20921;-90
2022/04/30 00:52:19;;;;;;;24.77;23.33;;;;;;;;;;5072114;28;20448;-90
2022/04/30 00:54:50;;;;;;;26.70;24.50;;;;;;;;;;5056348;28;20518;-90
2022/04/30 00:57:19;;;;;;;24.90;23.05;;;;;;;;;;5055187;28;20492;-90
2022/04/30 00:59:49;;;;;;;26.50;24.43;;;;;;;;;;5071917;28;20338;-90
2022/04/30 01:02:16;;;;;;;25.00;23.17;;;;;;;;;;5056397;28;20439;-89
2022/04/30 01:04:44;;;;;;;26.00;24.00;;;;;;;;;;5056408;28;20478;-90
2022/04/30 01:07:12;;;;;;;25.13;22.80;;;;;;;;;;5071478;28;20912;-90
2022/04/30 01:09:40;;;;;;;24.87;23.17;;;;;;;;;;5056396;28;20422;-89
2022/04/30 01:12:10;;;;;;;25.50;23.17;;;;;;;;;;5055837;28;20406;-90
2022/04/30 01:14:39;;;;;;;25.50;23.90;;;;;;;;;;5055736;28;21013;-90
2022/04/30 01:17:08;;;;;;;24.97;23.20;;;;;;;;;;5055951;28;20459;-90
2022/04/30 01:19:37;;;;;;;25.50;23.50;;;;;;;;;;5071373;28;20462;-90
2022/04/30 01:22:10;;;;;;;26.17;24.20;;;;;;;;;;5055958;28;20885;-89
2022/04/30 01:24:40;;;;;;;26.57;24.50;;;;;;;;;;5056129;28;20474;-90
2022/04/30 01:27:08;;;;;;;26.53;24.37;;;;;;;;;;5071289;28;20455;-90
2022/04/30 01:29:37;;;;;;;27.03;25.23;;;;;;;;;;5055654;28;20517;-90
2022/04/30 01:37:37;;;;;;;27.57;25.13;;;;;;;;;;5055846;28;20431;-89
2022/04/30 01:40:07;;;;;;;25.37;23.60;;;;;;;;;;5055651;28;20853;-89
2022/04/30 01:42:37;;;;;;;24.85;23.20;;;;;;;;;;5055402;28;20502;-90
2022/04/30 01:45:06;;;;;;;25.80;23.70;;;;;;;;;;5055749;28;20193;-89
2022/04/30 01:47:35;;;;;;;26.00;24.00;;;;;;;;;;5070798;28;20959;-90
2022/04/30 01:50:02;;;;;;;26.43;24.37;;;;;;;;;;5055525;28;20501;-90
2022/04/30 01:52:30;;;;;;;24.97;23.47;;;;;;;;;;5055418;28;20418;-89
2022/04/30 01:54:58;;;;;;;25.13;23.23;;;;;;;;;;5055111;28;20511;-89
2022/04/30 01:57:27;;;;;;;25.23;23.48;;;;;;;;;;5054910;28;20499;-90
2022/04/30 01:59:55;;;;;;;25.10;23.33;;;;;;;;;;5054336;28;20189;-90
2022/04/30 02:02:24;;;;;;;25.37;23.87;;;;;;;;;;5055098;28;20459;-88
2022/04/30 02:04:53;;;;;;;25.75;24.02;;;;;;;;;;5070433;28;20501;-90
2022/04/30 02:07:20;;;;;;;25.73;24.03;;;;;;;;;;5055419;28;20196;-89
2022/04/30 02:09:51;;;;;;;25.65;23.90;;;;;;;;;;5054882;28;20438;-90
2022/04/30 02:12:18;;;;;;;26.27;24.23;;;;;;;;;;5054994;28;20197;-90
2022/04/30 02:14:50;;;;;;;25.70;24.00;;;;;;;;;;5054606;28;20486;-90
2022/04/30 02:17:18;;;;;;;26.40;24.17;;;;;;;;;;5055079;28;20444;-90
2022/04/30 02:22:31;;;;;;;25.53;23.80;;;;;;;;;;5054771;28;20254;-90
2022/04/30 02:24:59;;;;;;;25.93;24.03;;;;;;;;;;5054959;28;20461;-90
2022/04/30 02:27:26;;;;;;;26.05;23.95;;;;;;;;;;5054499;28;20483;-89
2022/04/30 02:29:55;;;;;;;25.45;23.52;;;;;;;;;;5054912;28;20192;-89
2022/04/30 02:32:22;;;;;;;24.07;22.47;;;;;;;;;;5054128;28;20609;-89
2022/04/30 02:34:50;;;;;;;26.33;24.20;;;;;;;;;;5054663;28;20485;-90
2022/04/30 02:37:17;;;;;;;24.73;23.17;;;;;;;;;;5054620;28;20196;-89
2022/04/30 02:39:46;;;;;;;24.25;22.50;;;;;;;;;;5054848;28;20200;-90
2022/04/30 02:42:14;;;;;;;25.93;24.07;;;;;;;;;;5054872;28;20204;-90
2022/04/30 02:44:41;;;;;;;24.88;22.98;;;;;;;;;;5054703;28;20414;-90
2022/04/30 02:47:10;;;;;;;24.93;23.30;;;;;;;;;;5055513;28;20197;-89
2022/04/30 02:49:38;;;;;;;25.47;23.20;;;;;;;;;;5054740;28;20439;-90
2022/04/30 02:52:06;;;;;;;25.83;23.97;;;;;;;;;;5054432;28;20541;-90
2022/04/30 02:54:34;;;;;;;25.43;23.50;;;;;;;;;;5054024;28;20484;-90
2022/04/30 02:57:02;;;;;;;26.07;24.17;;;;;;;;;;5053686;28;20987;-89
2022/04/30 03:02:15;;;;;;;25.50;23.70;;;;;;;;;;5052973;28;20531;-90
2022/04/30 03:04:43;;;;;;;25.50;23.73;;;;;;;;;;5053962;28;20429;-90
2022/04/30 03:07:11;;;;;;;26.70;24.93;;;;;;;;;;5054095;28;20479;-90
2022/04/30 03:09:39;;;;;;;26.60;24.60;;;;;;;;;;5054100;28;20432;-90
2022/04/30 03:12:08;;;;;;;26.60;24.03;;;;;;;;;;5054039;28;20857;-90
2022/04/30 03:14:35;;;;;;;27.10;25.00;;;;;;;;;;5053816;28;20501;-90
2022/04/30 03:22:34;;;;;;;25.73;23.83;;;;;;;;;;5053739;28;20191;-90
2022/04/30 03:25:02;;;;;;;25.85;24.13;;;;;;;;;;5053984;28;20906;-88
2022/04/30 03:27:29;;;;;;;26.27;24.25;;;;;;;;;;5053621;28;20228;-90
2022/04/30 03:29:57;;;;;;;25.83;23.80;;;;;;;;;;5053871;28;20189;-89
2022/04/30 03:32:24;;;;;;;26.03;24.23;;;;;;;;;;5053713;28;20915;-90
2022/04/30 03:34:53;;;;;;;26.95;24.58;;;;;;;;;;5054075;28;20454;-89
2022/04/30 03:37:20;;;;;;;27.58;25.10;;;;;;;;;;5053982;28;20240;-90
2022/04/30 03:39:48;;;;;;;25.90;24.10;;;;;;;;;;5053511;28;20196;-90
2022/04/30 03:42:15;;;;;;;27.33;24.70;;;;;;;;;;5053668;28;20923;-89
2022/04/30 03:44:42;;;;;;;26.87;24.87;;;;;;;;;;5053570;28;20436;-90
2022/04/30 03:47:10;;;;;;;26.70;24.83;;;;;;;;;;5053826;28;20758;-90
2022/04/30 03:49:37;;;;;;;26.73;24.53;;;;;;;;;;5053903;28;20189;-89
2022/04/30 03:52:09;;;;;;;26.37;24.23;;;;;;;;;;5052476;28;20488;-88
2022/04/30 03:54:37;;;;;;;27.00;24.90;;;;;;;;;;5053324;28;20470;-89
2022/04/30 03:57:04;;;;;;;27.02;24.70;;;;;;;;;;5053440;28;20454;-89
2022/04/30 03:59:32;;;;;;;26.13;24.10;;;;;;;;;;5068999;28;20208;-89
2022/04/30 04:02:00;;;;;;;26.55;24.52;;;;;;;;;;5052491;28;20418;-90
2022/04/30 04:04:27;;;;;;;27.57;25.20;;;;;;;;;;5053640;28;20224;-90
2022/04/30 04:06:55;;;;;;;27.13;24.83;;;;;;;;;;5053599;28;20410;-89
2022/04/30 04:09:23;;;;;;;27.33;25.20;;;;;;;;;;5053703;28;20799;-87
2022/04/30 04:11:51;;;;;;;27.70;25.60;;;;;;;;;;5053436;28;20469;-87
2022/04/30 04:19:48;;;;;;;27.00;24.70;;;;;;;;;;5053394;28;20192;-86
2022/04/30 04:22:15;;;;;;;26.83;24.73;;;;;;;;;;5053449;28;20193;-86
2022/04/30 04:27:29;;;;;;;26.03;24.47;;;;;;;;;;5053000;28;20428;-87
2022/04/30 04:29:57;;;;;;;25.50;23.80;;;;;;;;;;5068685;28;20466;-87
2022/04/30 04:32:24;;;;;;;25.23;23.42;;;;;;;;;;5053493;28;20467;-87
2022/04/30 04:34:52;;;;;;;26.10;24.13;;;;;;;;;;5056601;28;20255;-87
2022/04/30 04:37:21;;;;;;;26.55;24.45;;;;;;;;;;5072015;28;20512;-87
2022/04/30 04:39:50;;;;;;;26.77;24.67;;;;;;;;;;5056368;28;20250;-87
2022/04/30 04:42:19;;;;;;;25.55;23.52;;;;;;;;;;5056456;28;20635;-87
2022/04/30 04:44:46;;;;;;;26.40;24.40;;;;;;;;;;5056299;28;20203;-87
2022/04/30 04:47:14;;;;;;;26.80;25.00;;;;;;;;;;5056403;28;20459;-87
2022/04/30 04:49:41;;;;;;;26.75;24.30;;;;;;;;;;5056671;28;20201;-87
2022/04/30 04:52:10;;;;;;;25.40;23.77;;;;;;;;;;5056319;28;20228;-86
2022/04/30 04:54:37;;;;;;;25.53;23.63;;;;;;;;;;5056270;28;20322;-87
2022/04/30 04:57:06;;;;;;;25.92;23.98;;;;;;;;;;5056296;28;20478;-87
2022/04/30 04:59:34;;;;;;;26.60;24.80;;;;;;;;;;5056421;28;20196;-87
2022/04/30 05:02:03;;;;;;;26.88;24.60;;;;;;;;;;5071607;28;20501;-86
2022/04/30 05:04:31;;;;;;;27.73;25.30;;;;;;;;;;5056429;28;20631;-87
2022/04/30 05:06:59;;;;;;;26.40;24.30;;;;;;;;;;5056042;28;20447;-87
2022/04/30 05:09:26;;;;;;;26.30;24.10;;;;;;;;;;5056135;28;20922;-87
2022/04/30 05:11:54;;;;;;;26.03;24.13;;;;;;;;;;5055920;28;20830;-87
2022/04/30 05:14:23;;;;;;;26.88;24.63;;;;;;;;;;5055859;28;21017;-87
2022/04/30 05:16:50;;;;;;;27.38;25.10;;;;;;;;;;5057006;28;20192;-87
2022/04/30 05:19:17;;;;;;;25.23;23.60;;;;;;;;;;5055441;28;20192;-86
2022/04/30 05:21:45;;;;;;;26.83;24.83;;;;;;;;;;5055555;28;20410;-87
2022/04/30 05:24:12;;;;;;;26.90;24.37;;;;;;;;;;5055812;28;20193;-87
2022/04/30 05:26:39;;;;;;;27.55;25.42;;;;;;;;;;5056042;28;20433;-87
2022/04/30 05:29:07;;;;;;;26.13;24.20;;;;;;;;;;5055791;28;20220;-87
2022/04/30 05:31:36;;;;;;;27.23;24.85;;;;;;;;;;5055538;28;20435;-86
2022/04/30 05:34:03;;;;;;;25.88;23.92;;;;;;;;;;5055687;28;20189;-87
2022/04/30 05:36:31;;;;;;;27.38;24.85;;;;;;;;;;5055737;28;20189;-87
2022/04/30 05:38:59;;;;;;;26.48;24.60;;;;;;;;;;5055667;28;20185;-87
2022/04/30 05:41:26;;;;;;;26.07;23.83;;;;;;;;;;5055519;28;20242;-87
2022/04/30 05:43:53;;;;;;;27.90;25.40;;;;;;;;;;5055148;28;20844;-87
2022/04/30 05:46:21;;;;;;;28.23;25.87;;;;;;;;;;5055625;28;20417;-87
2022/04/30 05:48:50;;;;;;;25.93;24.03;;;;;;;;;;5070923;28;20476;-86
2022/04/30 05:51:17;;;;;;;26.30;24.50;;;;;;;;;;5070725;28;20451;-87
2022/04/30 05:53:44;;;;;;;27.33;25.43;;;;;;;;;;5054951;28;20524;-87
2022/04/30 05:56:12;;;;;;;27.03;24.80;;;;;;;;;;5054925;28;20499;-87
2022/04/30 05:58:40;;;;;;;25.93;23.97;;;;;;;;;;5054978;28;20921;-85
2022/04/30 06:01:07;;;;;;;27.20;24.63;;;;;;;;;;5054670;28;20436;-87
2022/04/30 06:03:35;;;;;;;26.90;25.00;;;;;;;;;;5070395;28;20551;-87
2022/04/30 06:06:04;;;;;;;26.80;24.73;;;;;;;;;;5055142;28;20805;-87
2022/04/30 06:08:31;;;;;;;26.87;24.80;;;;;;;;;;5055379;28;20488;-88
2022/04/30 06:11:00;;;;;;;26.93;25.03;;;;;;;;;;5070716;28;20448;-88
2022/04/30 06:13:28;;;;;;;26.10;24.20;;;;;;;;;;5070494;28;20937;-88
2022/04/30 06:15:56;;;;;;;26.87;24.73;;;;;;;;;;5070419;28;20544;-88
2022/04/30 06:18:25;;;;;;;26.42;24.52;;;;;;;;;;5053923;28;20520;-88
2022/04/30 06:20:52;;;;;;;27.20;25.30;;;;;;;;;;5054810;28;20291;-88
2022/04/30 06:23:21;;;;;;;27.00;24.70;;;;;;;;;;5054585;28;20407;-88
2022/04/30 06:25:48;;;;;;;26.08;24.42;;;;;;;;;;5054915;28;20765;-88
2022/04/30 06:28:16;;;;;;;28.30;26.20;;;;;;;;;;5069864;28;20771;-87
2022/04/30 06:30:44;;;;;;;27.17;25.17;;;;;;;;;;5054710;28;20435;-88
2022/04/30 06:33:11;;;;;;;26.70;24.90;;;;;;;;;;5069864;28;20479;-88
2022/04/30 06:35:39;;;;;;;25.73;23.70;;;;;;;;;;5054334;28;20490;-88
2022/04/30 06:38:07;;;;;;;26.40;24.43;;;;;;;;;;5054306;28;20416;-89
2022/04/30 06:40:36;;;;;;;25.43;23.43;;;;;;;;;;5054658;28;20953;-90
2022/04/30 06:43:04;;;;;;;25.53;23.63;;;;;;;;;;5054391;28;20429;-90
2022/04/30 06:45:32;;;;;;;26.83;24.93;;;;;;;;;;5054237;28;20439;-89
2022/04/30 06:47:59;;;;;;;27.30;25.30;;;;;;;;;;5054346;28;20501;-89
2022/04/30 06:50:27;;;;;;;25.50;23.80;;;;;;;;;;5054253;28;20418;-88
2022/04/30 06:58:25;;;;;;;27.50;25.40;;;;;;;;;;5054054;28;20402;-87
2022/04/30 07:03:35;;;;;;;27.60;25.60;;;;;;;;;;5031395;28;20431;-87
2022/04/30 07:06:05;;;;;;;26.87;25.10;;;;;;;;;;5054131;28;20422;-87
2022/04/30 07:08:33;;;;;;;27.60;25.50;;;;;;;;;;5069191;28;20851;-86
2022/04/30 07:11:02;;;;;;;28.03;25.90;;;;;;;;;;5053718;28;20935;-85
2022/04/30 07:13:30;;;;;;;27.33;25.17;;;;;;;;;;5053891;28;20417;-85
2022/04/30 07:15:58;;;;;;;27.03;25.07;;;;;;;;;;5053878;28;20514;-87
2022/04/30 07:18:26;;;;;;;28.03;25.83;;;;;;;;;;5069430;28;20447;-87
2022/04/30 07:20:55;;;;;;;27.97;25.87;;;;;;;;;;5053920;28;21150;-86
2022/04/30 07:23:23;;;;;;;27.00;25.10;;;;;;;;;;5053382;28;20422;-85
2022/04/30 07:25:50;;;;;;;27.17;25.20;;;;;;;;;;5053798;28;20482;-86
2022/04/30 07:28:19;;;;;;;29.20;26.73;;;;;;;;;;5053505;28;20442;-86
2022/04/30 07:30:47;;;;;;;25.77;23.90;;;;;;;;;;5053944;28;20435;-88
2022/04/30 07:33:14;;;;;;;28.17;26.13;;;;;;;;;;5053485;28;20916;-88
2022/04/30 07:35:41;;;;;;;28.33;25.90;;;;;;;;;;5053972;28;20483;-88
2022/04/30 07:38:09;;;;;;;27.10;25.30;;;;;;;;;;5069246;28;20526;-86
2022/04/30 07:40:38;;;;;;;29.23;27.03;;;;;;;;;;5053523;28;20442;-88
2022/04/30 07:43:05;;;;;;;29.20;27.00;;;;;;;;;;5054477;28;20442;-88
2022/04/30 07:45:34;;;;;;;28.70;26.73;;;;;;;;;;5053870;28;20422;-87
2022/04/30 07:48:01;;;;;;;28.80;26.80;;;;;;;;;;5055317;28;20433;-87
2022/04/30 07:50:35;;;;;;;30.20;28.20;;;;;;;;;;5054829;28;20854;-88
2022/04/30 07:53:02;;;;;;;29.67;27.47;;;;;;;;;;5053706;28;20448;-86
2022/04/30 07:55:30;;;;;;;30.17;27.70;;;;;;;;;;5053227;28;20477;-89
2022/04/30 07:57:57;;;;;;;29.13;27.33;;;;;;;;;;5053913;28;20463;-93
2022/04/30 08:00:25;;;;;;;29.23;27.20;;;;;;;;;;5069671;28;20509;-89
2022/04/30 08:02:56;;;;;;;32.40;29.43;;;;;;;;;;5053834;28;20429;-92
2022/04/30 08:05:23;;;;;;;29.17;27.17;;;;;;;;;;5053531;28;20433;-89
2022/04/30 08:07:51;;;;;;;28.93;26.40;;;;;;;;;;5057478;28;20424;-90
2022/04/30 08:10:18;;;;;;;28.47;26.13;;;;;;;;;;5057604;28;20410;-88
2022/04/30 08:12:46;;;;;;;27.60;25.83;;;;;;;;;;5057308;28;20448;-89
2022/04/30 08:15:13;;;;;;;26.60;24.90;;;;;;;;;;5057157;28;20468;-90
2022/04/30 08:17:41;;;;;;;28.63;26.83;;;;;;;;;;5057301;28;20449;-90
2022/04/30 08:20:10;;;;;;;28.50;26.50;;;;;;;;;;5060181;28;20410;-89
2022/04/30 08:22:38;;;;;;;29.50;27.60;;;;;;;;;;5057592;28;20429;-89
2022/04/30 08:25:06;;;;;;;28.80;26.83;;;;;;;;;;5056781;28;20455;-85
2022/04/30 08:27:34;;;;;;;30.50;28.40;;;;;;;;;;5057376;28;20445;-88
2022/04/30 08:30:01;;;;;;;28.97;27.07;;;;;;;;;;5057108;28;20819;-88
2022/04/30 08:32:28;;;;;;;29.03;26.93;;;;;;;;;;5056531;28;20439;-87
2022/04/30 08:34:56;;;;;;;27.60;25.70;;;;;;;;;;5056290;28;20463;-85
2022/04/30 08:37:26;;;;;;;28.93;27.03;;;;;;;;;;5056038;28;20432;-92
2022/04/30 08:39:54;;;;;;;28.03;26.23;;;;;;;;;;5056725;28;20457;-87
2022/04/30 08:42:24;;;;;;;26.77;24.97;;;;;;;;;;5056432;28;20433;-86
2022/04/30 08:44:51;;;;;;;27.03;25.10;;;;;;;;;;5056460;28;20430;-86
2022/04/30 08:47:19;;;;;;;25.03;23.50;;;;;;;;;;5056808;28;20466;-87
2022/04/30 08:49:46;;;;;;;25.20;23.60;;;;;;;;;;5056237;28;20439;-86
2022/04/30 08:52:15;;;;;;;24.70;23.07;;;;;;;;;;5055443;28;20941;-83
2022/04/30 08:54:44;;;;;;;24.83;22.93;;;;;;;;;;5056106;28;20505;-86
2022/04/30 08:57:12;;;;;;;25.23;23.60;;;;;;;;;;5055616;28;20972;-86
2022/04/30 08:59:39;;;;;;;25.37;23.43;;;;;;;;;;5056190;28;20441;-84
2022/04/30 09:02:10;;;;;;;24.73;23.10;;;;;;;;;;5071785;28;20418;-85
2022/04/30 09:04:45;;;;;;;25.00;23.07;;;;;;;;;;5056128;28;20467;-85
2022/04/30 09:07:17;;;;;;;24.50;22.87;;;;;;;;;;5056173;28;20435;-86
2022/04/30 09:09:45;;;;;;;25.27;23.47;;;;;;;;;;5055763;28;20476;-85
2022/04/30 09:12:14;;;;;;;24.73;23.23;;;;;;;;;;5055911;28;20459;-87
2022/04/30 09:14:42;;;;;;;24.63;23.00;;;;;;;;;;5055860;28;20478;-85
2022/04/30 09:17:11;;;;;;;24.40;22.80;;;;;;;;;;5054839;28;20495;-85
2022/04/30 09:19:48;;;;;;;24.83;23.00;;;;;;;;;;5055256;28;20463;-85
2022/04/30 09:22:16;;;;;;;26.47;23.97;;;;;;;;;;5055381;28;20903;-85
2022/04/30 09:24:51;;;;;;;23.77;22.27;;;;;;;;;;5055230;28;20486;-86
2022/04/30 09:27:19;;;;;;;24.43;22.83;;;;;;;;;;5055452;28;20601;-85
2022/04/30 09:29:47;;;;;;;25.13;23.20;;;;;;;;;;5055492;28;20450;-84
2022/04/30 09:32:18;;;;;;;24.00;22.50;;;;;;;;;;5054904;28;20440;-84
2022/04/30 09:37:49;;;;;;;24.00;22.60;;;;;;;;;;5013677;28;20629;-86
2022/04/30 09:40:21;;;;;;;25.33;23.80;;;;;;;;;;5013406;28;20490;-86
2022/04/30 09:42:48;;;;;;;23.43;22.13;;;;;;;;;;5013762;28;20440;-86
2022/04/30 09:45:26;;;;;;;24.87;22.97;;;;;;;;;;5013812;28;20444;-89
2022/04/30 09:47:54;;;;;;;24.70;23.13;;;;;;;;;;5013705;28;20826;-86
2022/04/30 09:55:55;;;;;;;26.00;24.40;;;;;;;;;;5012863;28;20482;-85
2022/04/30 09:58:24;;;;;;;27.63;25.60;;;;;;;;;;5012923;28;20503;-86
2022/04/30 10:00:54;;;;;;;26.13;24.43;;;;;;;;;;4996651;28;20474;-88
2022/04/30 10:03:22;;;;;;;26.93;25.30;;;;;;;;;;5013437;28;20463;-88
2022/04/30 10:05:50;;;;;;;27.10;25.17;;;;;;;;;;5013528;28;20439;-88
2022/04/30 10:08:19;;;;;;;25.73;24.23;;;;;;;;;;5027195;28;20422;-88
2022/04/30 10:10:49;;;;;;;25.97;24.03;;;;;;;;;;5054881;28;20473;-88
2022/04/30 10:13:30;;;;;;;27.43;25.70;;;;;;;;;;5054996;28;20927;-88
2022/04/30 10:15:59;;;;;;;26.87;25.10;;;;;;;;;;5070455;28;20462;-87
2022/04/30 10:18:34;;;;;;;26.53;24.83;;;;;;;;;;5070239;28;20422;-87
2022/04/30 10:21:06;;;;;;;25.40;24.00;;;;;;;;;;5055050;28;20417;-87
2022/04/30 10:23:33;;;;;;;26.13;24.53;;;;;;;;;;5055396;28;20439;-88
2022/04/30 10:26:07;;;;;;;26.10;24.50;;;;;;;;;;5054625;28;20414;-88
2022/04/30 10:28:36;;;;;;;26.10;24.50;;;;;;;;;;5054999;28;20522;-87
2022/04/30 10:31:04;;;;;;;26.00;24.40;;;;;;;;;;5054700;28;20460;-88
2022/04/30 10:33:32;;;;;;;26.70;25.10;;;;;;;;;;5054239;28;20421;-86
2022/04/30 10:36:06;;;;;;;26.43;24.80;;;;;;;;;;5054596;28;20957;-87
2022/04/30 10:38:34;;;;;;;27.73;25.83;;;;;;;;;;5054734;28;20466;-88
2022/04/30 10:41:02;;;;;;;29.50;27.30;;;;;;;;;;5054400;28;20435;-88
2022/04/30 10:43:34;;;;;;;26.97;25.10;;;;;;;;;;5054424;28;20410;-89
2022/04/30 10:46:03;;;;;;;26.13;24.57;;;;;;;;;;5054624;28;20458;-88
2022/04/30 10:48:32;;;;;;;28.73;26.87;;;;;;;;;;5054015;28;20446;-88
2022/04/30 10:51:04;;;;;;;27.33;25.70;;;;;;;;;;5054492;28;20439;-88
2022/04/30 10:53:32;;;;;;;28.27;26.77;;;;;;;;;;5054338;28;20417;-89
2022/04/30 10:55:59;;;;;;;27.87;26.17;;;;;;;;;;5053674;28;20594;-88
2022/04/30 10:58:27;;;;;;;27.90;26.20;;;;;;;;;;5054068;28;20451;-89
2022/04/30 11:00:56;;;;;;;26.77;25.03;;;;;;;;;;5054179;28;20435;-89
2022/04/30 11:03:28;;;;;;;27.00;25.30;;;;;;;;;;5054033;28;20417;-88
2022/04/30 11:05:56;;;;;;;25.77;24.07;;;;;;;;;;5069353;28;20912;-88
2022/04/30 11:08:24;;;;;;;27.63;25.90;;;;;;;;;;5054213;28;20441;-88
2022/04/30 11:10:52;;;;;;;27.30;25.20;;;;;;;;;;5053922;28;20446;-89
2022/04/30 11:13:20;;;;;;;26.63;24.70;;;;;;;;;;5069581;28;20444;-88
2022/04/30 11:15:47;;;;;;;27.00;24.97;;;;;;;;;;5053981;28;20905;-88
2022/04/30 11:18:15;;;;;;;28.33;26.17;;;;;;;;;;5053032;28;20438;-88
2022/04/30 11:20:44;;;;;;;26.80;25.00;;;;;;;;;;5054443;28;20533;-88
2022/04/30 11:23:21;;;;;;;26.63;24.93;;;;;;;;;;5054200;28;20470;-88
2022/04/30 11:25:49;;;;;;;26.67;24.97;;;;;;;;;;5053853;28;20417;-88
2022/04/30 11:28:16;;;;;;;28.27;26.17;;;;;;;;;;5053844;28;20474;-89
2022/04/30 11:30:46;;;;;;;26.20;24.50;;;;;;;;;;5054010;28;20423;-88
2022/04/30 11:33:13;;;;;;;27.80;25.70;;;;;;;;;;5069153;28;20439;-89
2022/04/30 11:35:41;;;;;;;26.70;25.00;;;;;;;;;;5053777;28;20472;-88
2022/04/30 11:38:11;;;;;;;27.17;25.40;;;;;;;;;;5053994;28;20457;-89
2022/04/30 11:40:43;;;;;;;26.23;24.70;;;;;;;;;;5054402;28;20422;-89
2022/04/30 11:43:10;;;;;;;25.57;23.80;;;;;;;;;;5057859;28;20481;-88
2022/04/30 11:45:38;;;;;;;27.33;25.43;;;;;;;;;;5073575;28;20446;-89
2022/04/30 11:48:05;;;;;;;26.20;24.50;;;;;;;;;;5057428;28;20413;-88
2022/04/30 11:50:33;;;;;;;26.13;24.63;;;;;;;;;;5057573;28;20452;-89
2022/04/30 11:53:01;;;;;;;25.83;24.10;;;;;;;;;;5057645;28;20450;-88
2022/04/30 11:55:30;;;;;;;27.47;25.70;;;;;;;;;;5057808;28;20443;-89
2022/04/30 11:58:03;;;;;;;27.47;25.43;;;;;;;;;;5057381;28;20831;-88
2022/04/30 12:00:35;;;;;;;26.80;24.90;;;;;;;;;;5057302;28;20486;-88
2022/04/30 12:03:02;;;;;;;29.30;27.33;;;;;;;;;;5057896;28;20444;-89
2022/04/30 12:05:32;;;;;;;28.67;26.83;;;;;;;;;;5057618;28;20417;-87
2022/04/30 12:08:01;;;;;;;27.20;25.50;;;;;;;;;;5057495;28;20547;-87
2022/04/30 12:10:30;;;;;;;27.50;25.70;;;;;;;;;;5057379;28;20420;-87
2022/04/30 12:12:57;;;;;;;29.40;27.30;;;;;;;;;;5057371;28;20442;-87
2022/04/30 12:15:25;;;;;;;29.00;27.10;;;;;;;;;;5057296;28;20417;-88
2022/04/30 12:26:28;;;;;;;26.60;25.00;;;;;;;;;;5069830;28;20522;-88
2022/04/30 12:28:56;;;;;;;28.17;26.27;;;;;;;;;;5057019;28;20422;-88
2022/04/30 12:31:23;;;;;;;27.90;26.20;;;;;;;;;;5056822;28;20443;-88
2022/04/30 12:33:51;;;;;;;27.27;25.47;;;;;;;;;;5056353;28;20990;-88
2022/04/30 12:36:19;;;;;;;27.23;25.30;;;;;;;;;;5055623;28;20422;-88
2022/04/30 12:38:55;;;;;;;28.20;26.20;;;;;;;;;;5056937;28;20429;-88
2022/04/30 12:41:23;;;;;;;26.67;24.93;;;;;;;;;;5056824;28;20447;-89
2022/04/30 12:43:54;;;;;;;28.03;26.20;;;;;;;;;;5056923;28;20426;-91
2022/04/30 12:46:21;;;;;;;27.67;25.67;;;;;;;;;;5056686;28;20915;-90
2022/04/30 12:48:50;;;;;;;27.30;25.40;;;;;;;;;;5056811;28;20463;-90
2022/04/30 12:51:19;;;;;;;27.57;25.67;;;;;;;;;;5056818;28;20444;-90
2022/04/30 12:53:46;;;;;;;27.30;25.40;;;;;;;;;;5055609;28;20418;-89
2022/04/30 12:56:14;;;;;;;27.20;25.33;;;;;;;;;;5056708;28;20461;-88
2022/04/30 12:58:41;;;;;;;27.27;25.47;;;;;;;;;;5055656;28;20414;-88
2022/04/30 13:01:10;;;;;;;27.53;25.70;;;;;;;;;;5056256;28;20432;-88
2022/04/30 13:03:38;;;;;;;26.70;25.00;;;;;;;;;;5056302;28;20459;-88
2022/04/30 13:06:05;;;;;;;26.80;25.20;;;;;;;;;;5056329;28;20447;-88
2022/04/30 13:13:59;;;;;;;26.87;25.00;;;;;;;;;;5055260;28;20452;-83
2022/04/30 13:16:28;;;;;;;25.30;23.80;;;;;;;;;;5055653;28;20814;-85
2022/04/30 13:18:56;;;;;;;26.13;24.43;;;;;;;;;;5056696;28;20931;-82
2022/04/30 13:21:23;;;;;;;26.70;24.80;;;;;;;;;;5054821;28;20418;-85
2022/04/30 13:23:51;;;;;;;27.13;25.47;;;;;;;;;;5056086;28;20448;-83
2022/04/30 13:26:20;;;;;;;26.87;25.17;;;;;;;;;;5055016;28;20463;-84
2022/04/30 13:28:48;;;;;;;27.40;25.60;;;;;;;;;;5055111;28;20865;-85
2022/04/30 13:31:15;;;;;;;28.27;26.57;;;;;;;;;;5055541;28;20816;-89
2022/04/30 13:33:44;;;;;;;26.53;24.73;;;;;;;;;;5054841;28;20414;-84
2022/04/30 13:36:11;;;;;;;26.80;25.20;;;;;;;;;;5054812;28;20749;-89
2022/04/30 13:38:40;;;;;;;26.70;24.93;;;;;;;;;;5054995;28;20497;-84
2022/04/30 13:41:08;;;;;;;26.20;24.57;;;;;;;;;;5055069;28;20448;-85
2022/04/30 13:43:35;;;;;;;25.77;24.13;;;;;;;;;;5054735;28;20439;-86
2022/04/30 13:46:02;;;;;;;27.50;25.60;;;;;;;;;;5055246;28;20411;-85
2022/04/30 13:48:30;;;;;;;27.50;25.57;;;;;;;;;;5055242;28;20787;-87
2022/04/30 13:50:58;;;;;;;26.80;25.20;;;;;;;;;;5054910;28;20449;-86
2022/04/30 13:53:26;;;;;;;25.80;24.30;;;;;;;;;;5054983;28;20790;-85
2022/04/30 13:55:54;;;;;;;25.83;24.13;;;;;;;;;;5054814;28;20457;-85
2022/04/30 13:58:21;;;;;;;25.37;23.77;;;;;;;;;;5054213;28;20462;-84
2022/04/30 14:00:49;;;;;;;24.43;22.93;;;;;;;;;;5054818;28;20440;-85
2022/04/30 14:03:17;;;;;;;25.47;23.60;;;;;;;;;;5054792;28;20435;-86
2022/04/30 14:05:44;;;;;;;25.80;24.00;;;;;;;;;;5055196;28;20462;-87
2022/04/30 14:08:15;;;;;;;27.17;25.20;;;;;;;;;;5054909;28;20455;-86
2022/04/30 14:10:42;;;;;;;24.77;23.27;;;;;;;;;;5054850;28;20472;-86
2022/04/30 14:15:55;;;;;;;26.17;24.47;;;;;;;;;;5055380;28;20439;-91
2022/04/30 14:18:24;;;;;;;26.33;24.53;;;;;;;;;;5061225;28;20467;-90
2022/04/30 14:20:52;;;;;;;26.50;24.60;;;;;;;;;;5074676;28;20502;-90
2022/04/30 14:23:22;;;;;;;24.63;23.13;;;;;;;;;;5075164;28;20417;-90
2022/04/30 14:25:50;;;;;;;24.80;23.33;;;;;;;;;;5075307;28;20471;-91
2022/04/30 14:28:18;;;;;;;24.93;23.43;;;;;;;;;;5075088;28;20470;-82
2022/04/30 14:30:45;;;;;;;24.57;23.07;;;;;;;;;;5073562;28;20459;-86
2022/04/30 14:33:13;;;;;;;24.17;22.63;;;;;;;;;;5073487;28;20437;-84
2022/04/30 14:35:41;;;;;;;24.13;22.63;;;;;;;;;;5073624;28;20451;-84
2022/04/30 14:38:11;;;;;;;23.70;22.40;;;;;;;;;;5073609;28;20468;-83
2022/04/30 14:40:40;;;;;;;22.80;21.40;;;;;;;;;;5073372;28;20428;-85
2022/04/30 14:43:09;;;;;;;23.27;21.87;;;;;;;;;;5073467;28;20442;-84
2022/04/30 14:45:36;;;;;;;23.70;22.10;;;;;;;;;;5073571;28;20474;-83
2022/04/30 14:48:04;;;;;;;23.50;21.90;;;;;;;;;;5073421;28;20918;-84
2022/04/30 14:50:31;;;;;;;23.67;22.07;;;;;;;;;;5073150;28;20446;-83
2022/04/30 14:52:59;;;;;;;24.50;23.00;;;;;;;;;;5073356;28;20434;-85
2022/04/30 14:55:28;;;;;;;23.50;22.00;;;;;;;;;;5073322;28;20445;-85
2022/04/30 14:57:57;;;;;;;23.97;22.10;;;;;;;;;;5072598;28;20563;-83
2022/04/30 15:00:25;;;;;;;23.63;22.20;;;;;;;;;;5073281;28;20424;-84
2022/04/30 15:02:52;;;;;;;24.30;22.70;;;;;;;;;;5071360;28;20409;-81
2022/04/30 15:05:19;;;;;;;24.50;23.00;;;;;;;;;;5071096;28;20469;-84
2022/04/30 15:07:47;;;;;;;25.53;23.73;;;;;;;;;;5073078;28;20446;-84
2022/04/30 15:10:15;;;;;;;25.00;23.40;;;;;;;;;;5072940;28;20428;-83
2022/04/30 15:12:42;;;;;;;24.93;23.37;;;;;;;;;;5073521;28;20433;-84
2022/04/30 15:15:11;;;;;;;25.67;24.07;;;;;;;;;;5072767;28;20488;-82
2022/04/30 15:17:39;;;;;;;25.53;23.83;;;;;;;;;;5072743;28;20502;-86
2022/04/30 15:20:07;;;;;;;26.03;24.40;;;;;;;;;;5072794;28;20453;-82